Time;durP1;ratioP1;P1;durP2;ratioP2;P2;SDS_P1;SDS_P2;PMS_P1;PMS_P2;Temp;Humidity;BMP_temperature;BMP_pressure;BME280_temperature;BME280_humidity;BME280_pressure;Samples;Min_cycle;Max_cycle;Signal;HPM_P1;HPM_P2
2023/09/05 00:00:12;;;;;;;10.48;2.92;;;;;;;;;;4971805;28;20053;-83
2023/09/05 00:02:42;;;;;;;4.97;3.50;;;;;;;;;;4972740;28;20050;-83
2023/09/05 00:05:38;;;;;;;4.82;3.55;;;;;;;;;;4973032;28;20047;-82
2023/09/05 00:08:05;;;;;;;3.55;2.92;;;;;;;;;;4974129;28;20079;-83
2023/09/05 00:10:35;;;;;;;4.90;3.28;;;;;;;;;;4971995;28;20057;-82
2023/09/05 00:13:05;;;;;;;4.18;2.97;;;;;;;;;;4973984;28;20058;-82
2023/09/05 00:15:35;;;;;;;4.35;3.20;;;;;;;;;;4971978;28;20054;-83
2023/09/05 00:18:05;;;;;;;3.90;3.30;;;;;;;;;;4971583;28;20038;-82
2023/09/05 00:20:35;;;;;;;5.60;3.30;;;;;;;;;;4974759;28;20047;-82
2023/09/05 00:23:06;;;;;;;2.95;2.30;;;;;;;;;;4974061;28;20550;-82
2023/09/05 00:25:35;;;;;;;3.67;3.28;;;;;;;;;;4973008;28;20058;-82
2023/09/05 00:28:03;;;;;;;4.35;3.05;;;;;;;;;;4971084;28;20039;-82
2023/09/05 00:30:34;;;;;;;3.25;2.85;;;;;;;;;;4965145;28;20051;-82
2023/09/05 00:33:04;;;;;;;5.30;3.70;;;;;;;;;;4966604;28;20039;-83
2023/09/05 00:35:32;;;;;;;4.45;3.28;;;;;;;;;;4955787;28;20058;-82
2023/09/05 00:38:01;;;;;;;4.63;3.30;;;;;;;;;;4962082;28;20062;-82
2023/09/05 00:40:32;;;;;;;3.75;3.13;;;;;;;;;;4971012;28;20047;-82
2023/09/05 00:43:02;;;;;;;5.93;3.92;;;;;;;;;;4955756;28;20047;-82
2023/09/05 00:45:34;;;;;;;3.30;3.00;;;;;;;;;;4971627;28;20047;-82
2023/09/05 00:48:07;;;;;;;4.82;3.42;;;;;;;;;;4953396;28;20059;-82
2023/09/05 00:50:34;;;;;;;3.83;3.30;;;;;;;;;;4953149;29;20051;-82
2023/09/05 00:53:02;;;;;;;4.68;4.03;;;;;;;;;;4969817;28;20047;-82
2023/09/05 00:55:35;;;;;;;3.92;3.42;;;;;;;;;;4954248;28;20061;-82
2023/09/05 00:58:05;;;;;;;5.40;4.32;;;;;;;;;;4952025;28;20047;-82
2023/09/05 01:00:33;;;;;;;7.28;3.33;;;;;;;;;;4968842;28;20488;-82
2023/09/05 01:03:02;;;;;;;5.40;3.58;;;;;;;;;;4971556;28;20046;-82
2023/09/05 01:05:36;;;;;;;5.03;3.60;;;;;;;;;;4959422;28;20057;-82
2023/09/05 01:08:05;;;;;;;4.80;4.30;;;;;;;;;;4953154;28;20066;-82
2023/09/05 01:10:42;;;;;;;6.65;4.40;;;;;;;;;;4969688;28;20058;-82
2023/09/05 01:13:12;;;;;;;6.57;4.90;;;;;;;;;;4958514;28;20051;-82
2023/09/05 01:15:39;;;;;;;5.05;3.15;;;;;;;;;;4949838;28;20062;-82
2023/09/05 01:18:10;;;;;;;5.13;3.60;;;;;;;;;;4975715;28;20381;-82
2023/09/05 01:20:47;;;;;;;4.30;3.05;;;;;;;;;;4953084;28;20078;-82
2023/09/05 01:23:18;;;;;;;4.10;2.40;;;;;;;;;;4970917;28;20495;-82
2023/09/05 01:25:52;;;;;;;4.32;3.85;;;;;;;;;;4954856;28;20125;-82
2023/09/05 01:28:23;;;;;;;3.88;3.47;;;;;;;;;;4969923;28;20058;-82
2023/09/05 01:30:50;;;;;;;4.22;3.10;;;;;;;;;;4976729;28;20047;-82
2023/09/05 01:33:19;;;;;;;5.47;3.40;;;;;;;;;;4968294;28;20492;-82
2023/09/05 01:35:47;;;;;;;4.38;3.28;;;;;;;;;;4952890;28;20055;-82
2023/09/05 01:38:16;;;;;;;9.02;3.45;;;;;;;;;;4954934;28;20051;-82
2023/09/05 01:40:43;;;;;;;5.57;3.97;;;;;;;;;;4947748;28;20527;-82
2023/09/05 01:43:12;;;;;;;5.47;3.90;;;;;;;;;;4954399;28;20051;-82
2023/09/05 01:45:41;;;;;;;5.78;3.80;;;;;;;;;;4971376;28;20078;-82
2023/09/05 01:48:09;;;;;;;5.10;3.40;;;;;;;;;;4955764;28;20058;-82
2023/09/05 01:50:38;;;;;;;3.88;3.10;;;;;;;;;;4967147;28;20050;-82
2023/09/05 01:53:05;;;;;;;5.35;3.83;;;;;;;;;;4970326;28;20497;-82
2023/09/05 01:55:33;;;;;;;7.05;3.30;;;;;;;;;;4971175;28;20042;-82
2023/09/05 01:58:02;;;;;;;7.65;3.95;;;;;;;;;;4955986;28;20074;-82
2023/09/05 02:00:34;;;;;;;5.80;3.38;;;;;;;;;;4979324;28;20053;-82
2023/09/05 02:03:01;;;;;;;5.45;4.55;;;;;;;;;;4954932;28;20051;-82
2023/09/05 02:05:31;;;;;;;3.20;2.90;;;;;;;;;;4953675;28;20055;-82
2023/09/05 02:07:58;;;;;;;5.45;3.40;;;;;;;;;;4967707;28;20062;-82
2023/09/05 02:10:25;;;;;;;5.25;3.00;;;;;;;;;;4952029;29;20051;-82
2023/09/05 02:12:52;;;;;;;4.63;3.30;;;;;;;;;;4952753;28;20059;-82
2023/09/05 02:15:22;;;;;;;11.90;3.67;;;;;;;;;;4969775;28;20066;-82
2023/09/05 02:17:55;;;;;;;6.75;3.75;;;;;;;;;;4953567;28;20058;-82
2023/09/05 02:20:27;;;;;;;3.78;3.15;;;;;;;;;;4954895;28;20057;-82
2023/09/05 02:22:57;;;;;;;4.72;3.67;;;;;;;;;;4971038;28;20413;-82
2023/09/05 02:25:24;;;;;;;5.13;3.72;;;;;;;;;;4970942;28;20062;-82
2023/09/05 02:27:54;;;;;;;8.55;2.83;;;;;;;;;;4952878;28;20059;-82
2023/09/05 02:30:21;;;;;;;8.75;3.55;;;;;;;;;;4951914;29;20054;-82
2023/09/05 02:32:52;;;;;;;3.67;3.35;;;;;;;;;;4973252;28;20086;-82
2023/09/05 02:35:23;;;;;;;2.90;2.58;;;;;;;;;;4954065;28;20062;-82
2023/09/05 02:37:53;;;;;;;5.38;2.63;;;;;;;;;;4967708;28;20419;-82
2023/09/05 02:40:23;;;;;;;4.45;2.88;;;;;;;;;;4945791;28;20431;-82
2023/09/05 02:42:50;;;;;;;3.97;2.60;;;;;;;;;;4974219;28;20055;-82
2023/09/05 02:45:17;;;;;;;4.00;2.75;;;;;;;;;;4953527;28;20051;-82
2023/09/05 02:47:47;;;;;;;3.00;2.30;;;;;;;;;;4952633;28;20066;-82
2023/09/05 02:50:15;;;;;;;4.35;3.05;;;;;;;;;;4956234;28;20051;-82
2023/09/05 02:52:43;;;;;;;4.70;2.83;;;;;;;;;;4956491;28;20061;-82
2023/09/05 02:55:10;;;;;;;4.45;2.83;;;;;;;;;;4971049;28;20058;-82
2023/09/05 02:57:37;;;;;;;4.50;3.47;;;;;;;;;;4954147;28;20061;-82
2023/09/05 03:00:06;;;;;;;4.25;2.83;;;;;;;;;;4951040;28;20516;-81
2023/09/05 03:02:34;;;;;;;6.78;2.72;;;;;;;;;;4966122;28;20057;-82
2023/09/05 03:05:05;;;;;;;3.15;2.35;;;;;;;;;;4953514;28;20073;-82
2023/09/05 03:07:34;;;;;;;3.13;2.78;;;;;;;;;;4954971;28;20051;-82
2023/09/05 03:10:05;;;;;;;4.20;2.55;;;;;;;;;;4953788;28;20534;-82
2023/09/05 03:12:34;;;;;;;7.93;3.00;;;;;;;;;;4978862;28;20408;-82
2023/09/05 03:15:07;;;;;;;3.67;2.90;;;;;;;;;;4968200;28;20058;-82
2023/09/05 03:17:35;;;;;;;5.00;2.47;;;;;;;;;;4955500;28;20055;-82
2023/09/05 03:20:06;;;;;;;3.55;2.92;;;;;;;;;;4956908;28;20089;-82
2023/09/05 03:22:35;;;;;;;2.95;2.63;;;;;;;;;;4953781;28;20080;-82
2023/09/05 03:25:02;;;;;;;3.97;2.58;;;;;;;;;;4970514;28;20038;-82
2023/09/05 03:27:32;;;;;;;3.20;2.70;;;;;;;;;;4953236;28;20058;-82
2023/09/05 03:29:59;;;;;;;4.75;2.20;;;;;;;;;;4955229;28;20054;-82
2023/09/05 03:32:29;;;;;;;3.45;2.40;;;;;;;;;;4953913;29;20059;-82
2023/09/05 03:34:56;;;;;;;3.38;2.67;;;;;;;;;;4956750;28;20059;-82
2023/09/05 03:37:24;;;;;;;4.57;2.75;;;;;;;;;;4954301;29;20070;-82
2023/09/05 03:39:55;;;;;;;2.92;2.45;;;;;;;;;;4983778;28;20043;-82
2023/09/05 03:42:23;;;;;;;3.50;2.80;;;;;;;;;;4955178;28;20073;-82
2023/09/05 03:44:52;;;;;;;3.33;2.78;;;;;;;;;;4955336;28;20082;-82
2023/09/05 03:47:22;;;;;;;4.03;2.80;;;;;;;;;;4957636;28;20051;-82
2023/09/05 03:49:49;;;;;;;2.83;2.50;;;;;;;;;;4957785;28;20050;-82
2023/09/05 03:52:17;;;;;;;8.10;3.05;;;;;;;;;;4973250;28;20377;-82
2023/09/05 03:54:44;;;;;;;3.53;2.78;;;;;;;;;;4956576;28;20049;-82
2023/09/05 03:57:13;;;;;;;3.92;2.70;;;;;;;;;;4953410;28;20054;-82
2023/09/05 03:59:40;;;;;;;6.22;3.75;;;;;;;;;;4954881;28;20058;-82
2023/09/05 04:02:08;;;;;;;4.05;3.13;;;;;;;;;;4956294;28;20055;-82
2023/09/05 04:04:37;;;;;;;6.03;3.65;;;;;;;;;;4954446;28;20440;-82
2023/09/05 04:07:07;;;;;;;5.72;2.65;;;;;;;;;;4959964;28;20504;-82
2023/09/05 04:09:35;;;;;;;6.28;2.72;;;;;;;;;;4958673;28;20062;-82
2023/09/05 04:12:05;;;;;;;3.38;2.20;;;;;;;;;;4950502;28;20063;-82
2023/09/05 04:14:34;;;;;;;6.05;2.47;;;;;;;;;;4967044;28;20063;-82
2023/09/05 04:17:02;;;;;;;5.55;3.45;;;;;;;;;;4969197;28;20046;-82
2023/09/05 04:19:34;;;;;;;3.25;2.63;;;;;;;;;;4956588;28;20055;-82
2023/09/05 04:22:03;;;;;;;6.47;2.83;;;;;;;;;;4962775;28;20066;-82
2023/09/05 04:24:35;;;;;;;5.13;3.05;;;;;;;;;;4981323;28;20057;-82
2023/09/05 04:27:03;;;;;;;3.85;2.75;;;;;;;;;;4977776;28;20061;-82
2023/09/05 04:29:33;;;;;;;3.85;2.75;;;;;;;;;;4973437;28;20123;-82
2023/09/05 04:32:01;;;;;;;3.40;2.50;;;;;;;;;;4971962;28;20058;-82
2023/09/05 04:34:29;;;;;;;3.97;3.33;;;;;;;;;;4974800;28;20050;-82
2023/09/05 04:36:59;;;;;;;6.45;2.97;;;;;;;;;;4957679;28;20058;-82
2023/09/05 04:39:26;;;;;;;3.90;2.72;;;;;;;;;;4959848;28;20059;-82
2023/09/05 04:41:53;;;;;;;4.03;2.55;;;;;;;;;;4958490;28;20436;-82
2023/09/05 04:44:21;;;;;;;4.35;2.47;;;;;;;;;;4956327;28;20051;-81
2023/09/05 04:46:52;;;;;;;4.53;3.15;;;;;;;;;;4960756;28;20058;-82
2023/09/05 04:49:19;;;;;;;2.70;2.50;;;;;;;;;;4980935;28;20066;-82
2023/09/05 04:51:46;;;;;;;4.13;2.33;;;;;;;;;;4957052;28;20738;-82
2023/09/05 04:54:16;;;;;;;2.92;2.58;;;;;;;;;;4967439;28;20043;-82
2023/09/05 04:56:45;;;;;;;2.92;2.05;;;;;;;;;;4976243;28;20396;-82
2023/09/05 04:59:12;;;;;;;4.68;2.70;;;;;;;;;;4978968;28;20054;-80
2023/09/05 05:01:42;;;;;;;5.95;2.72;;;;;;;;;;4983083;28;20058;-80
2023/09/05 05:04:10;;;;;;;3.25;2.28;;;;;;;;;;4971707;28;20061;-80
2023/09/05 05:06:42;;;;;;;;;;;;;;;;;;4982314;28;20050;-80
2023/09/05 05:09:09;;;;;;;2.50;2.28;;;;;;;;;;4976900;28;19922;-80
2023/09/05 05:11:39;;;;;;;3.00;2.50;;;;;;;;;;4984235;28;20051;-80
2023/09/05 05:14:06;;;;;;;2.92;2.45;;;;;;;;;;4960271;28;20055;-82
2023/09/05 05:16:33;;;;;;;3.58;2.58;;;;;;;;;;4973408;28;20089;-82
2023/09/05 05:19:03;;;;;;;3.55;2.83;;;;;;;;;;4973310;28;20411;-82
2023/09/05 05:21:36;;;;;;;6.50;2.80;;;;;;;;;;4971682;28;20066;-82
2023/09/05 05:24:04;;;;;;;3.83;2.08;;;;;;;;;;4962650;28;20047;-82
2023/09/05 05:26:31;;;;;;;4.40;3.15;;;;;;;;;;4952682;28;20504;-82
2023/09/05 05:28:59;;;;;;;4.18;2.55;;;;;;;;;;4975077;28;20042;-82
2023/09/05 05:31:26;;;;;;;5.72;2.60;;;;;;;;;;4960810;28;20057;-82
2023/09/05 05:33:54;;;;;;;3.38;3.08;;;;;;;;;;4958807;28;20527;-82
2023/09/05 05:36:23;;;;;;;3.97;3.40;;;;;;;;;;4973373;28;20051;-83
2023/09/05 05:38:52;;;;;;;5.05;2.47;;;;;;;;;;4970348;28;20412;-83
2023/09/05 05:41:21;;;;;;;12.77;3.50;;;;;;;;;;4955225;28;20121;-83
2023/09/05 05:43:49;;;;;;;3.33;2.58;;;;;;;;;;4955240;28;20513;-83
2023/09/05 05:46:18;;;;;;;9.00;3.22;;;;;;;;;;4972932;28;20054;-83
2023/09/05 05:48:45;;;;;;;6.15;2.38;;;;;;;;;;4968710;28;20542;-83
2023/09/05 05:51:15;;;;;;;4.20;2.50;;;;;;;;;;4966387;28;20054;-83
2023/09/05 05:53:45;;;;;;;3.17;2.08;;;;;;;;;;4955273;28;20050;-83
2023/09/05 05:56:17;;;;;;;3.15;2.33;;;;;;;;;;4947683;28;20062;-83
2023/09/05 05:58:45;;;;;;;3.72;2.35;;;;;;;;;;4971840;28;20046;-83
2023/09/05 06:01:14;;;;;;;5.28;2.97;;;;;;;;;;4946974;28;20053;-83
2023/09/05 06:03:41;;;;;;;2.80;2.53;;;;;;;;;;4971768;28;20413;-83
2023/09/05 06:06:14;;;;;;;3.43;2.40;;;;;;;;;;4971964;28;20058;-83
2023/09/05 06:08:42;;;;;;;3.92;2.80;;;;;;;;;;4969832;28;20046;-83
2023/09/05 06:11:11;;;;;;;3.45;2.15;;;;;;;;;;4954494;28;20054;-84
2023/09/05 06:13:39;;;;;;;2.10;1.88;;;;;;;;;;4967094;28;20043;-83
2023/09/05 06:16:07;;;;;;;2.47;2.05;;;;;;;;;;4955131;28;20476;-83
2023/09/05 06:18:34;;;;;;;2.97;1.90;;;;;;;;;;4969852;28;20055;-83
2023/09/05 06:21:06;;;;;;;4.30;3.10;;;;;;;;;;4957059;28;20534;-83
2023/09/05 06:23:35;;;;;;;4.18;2.35;;;;;;;;;;4971440;28;20301;-83
2023/09/05 06:26:02;;;;;;;2.28;2.05;;;;;;;;;;4955257;28;20058;-83
2023/09/05 06:28:29;;;;;;;2.05;1.80;;;;;;;;;;4955253;28;20054;-83
2023/09/05 06:31:00;;;;;;;6.53;2.25;;;;;;;;;;4947078;28;20043;-83
2023/09/05 06:33:28;;;;;;;5.32;2.17;;;;;;;;;;4957448;28;20058;-83
2023/09/05 06:36:05;;;;;;;3.53;2.20;;;;;;;;;;4954477;28;20062;-83
2023/09/05 06:38:33;;;;;;;;;;;;;;;;;;4952496;29;20063;-83
2023/09/05 06:41:05;;;;;;;2.13;1.92;;;;;;;;;;4953925;28;20350;-83
2023/09/05 06:43:32;;;;;;;3.00;2.42;;;;;;;;;;4970535;28;20413;-83
2023/09/05 06:46:07;;;;;;;2.80;2.20;;;;;;;;;;4953357;28;20604;-83
2023/09/05 06:48:35;;;;;;;3.08;2.72;;;;;;;;;;4965869;28;20047;-83
2023/09/05 06:51:04;;;;;;;2.92;2.00;;;;;;;;;;4953018;28;20040;-83
2023/09/05 06:53:33;;;;;;;3.35;2.22;;;;;;;;;;4955031;28;20062;-83
2023/09/05 06:56:00;;;;;;;2.22;1.95;;;;;;;;;;4969776;28;20051;-83
2023/09/05 06:58:27;;;;;;;3.47;1.75;;;;;;;;;;4969275;28;20054;-83
2023/09/05 07:00:55;;;;;;;3.10;2.40;;;;;;;;;;4970016;28;20066;-83
2023/09/05 07:03:24;;;;;;;3.15;2.08;;;;;;;;;;4970226;28;20393;-83
2023/09/05 07:05:57;;;;;;;3.53;2.47;;;;;;;;;;4963665;28;20058;-83
2023/09/05 07:08:27;;;;;;;3.15;1.92;;;;;;;;;;4974624;28;20057;-83
2023/09/05 07:10:54;;;;;;;3.47;2.30;;;;;;;;;;4974487;28;20047;-83
2023/09/05 07:13:25;;;;;;;2.42;2.13;;;;;;;;;;4973121;28;20062;-83
2023/09/05 07:15:56;;;;;;;8.43;2.22;;;;;;;;;;4975899;28;20042;-83
2023/09/05 07:18:27;;;;;;;4.82;2.60;;;;;;;;;;4973254;28;20081;-83
2023/09/05 07:20:54;;;;;;;2.15;1.90;;;;;;;;;;4968073;28;20435;-83
2023/09/05 07:23:23;;;;;;;2.33;2.13;;;;;;;;;;4973067;28;20043;-83
2023/09/05 07:25:51;;;;;;;3.13;2.30;;;;;;;;;;4957570;28;20051;-83
2023/09/05 07:28:25;;;;;;;3.15;1.98;;;;;;;;;;4970879;28;20046;-82
2023/09/05 07:31:34;;;;;;;2.85;2.08;;;;;;;;;;4967843;28;20046;-82
2023/09/05 07:34:11;;;;;;;2.65;2.42;;;;;;;;;;4957410;28;20058;-83
2023/09/05 07:36:39;;;;;;;2.80;2.25;;;;;;;;;;4958564;28;20055;-83
2023/09/05 07:39:06;;;;;;;3.03;2.38;;;;;;;;;;4972661;28;20055;-82
2023/09/05 07:41:38;;;;;;;3.95;3.13;;;;;;;;;;4973483;28;20054;-82
2023/09/05 07:44:08;;;;;;;3.08;2.33;;;;;;;;;;4956555;28;20071;-84
2023/09/05 07:46:38;;;;;;;3.60;2.72;;;;;;;;;;4968896;28;20062;-83
2023/09/05 07:49:18;;;;;;;3.25;2.90;;;;;;;;;;4959750;28;20049;-82
2023/09/05 07:51:51;;;;;;;6.63;2.78;;;;;;;;;;4953854;28;20062;-83
2023/09/05 07:54:20;;;;;;;2.65;2.45;;;;;;;;;;4965290;28;20063;-83
2023/09/05 07:56:48;;;;;;;3.17;2.50;;;;;;;;;;4957874;28;20505;-83
2023/09/05 07:59:15;;;;;;;2.65;2.25;;;;;;;;;;4962845;28;20058;-83
2023/09/05 08:01:44;;;;;;;3.80;2.85;;;;;;;;;;4949794;28;20054;-83
2023/09/05 08:04:12;;;;;;;4.78;3.22;;;;;;;;;;4976074;28;20050;-83
2023/09/05 08:06:45;;;;;;;4.57;2.70;;;;;;;;;;4978241;28;20062;-83
2023/09/05 08:09:15;;;;;;;3.90;2.35;;;;;;;;;;4976898;28;20055;-83
2023/09/05 08:11:42;;;;;;;2.50;1.90;;;;;;;;;;4974425;28;20043;-83
2023/09/05 08:14:12;;;;;;;4.43;2.72;;;;;;;;;;4968913;28;20051;-83
2023/09/05 08:16:39;;;;;;;3.08;2.20;;;;;;;;;;4959111;28;20416;-82
2023/09/05 08:19:06;;;;;;;5.15;1.92;;;;;;;;;;4957062;28;20055;-83
2023/09/05 08:21:34;;;;;;;2.90;2.53;;;;;;;;;;4973530;28;20051;-83
2023/09/05 08:24:05;;;;;;;4.10;2.33;;;;;;;;;;4976517;28;20065;-83
2023/09/05 08:26:36;;;;;;;7.28;2.33;;;;;;;;;;4973146;28;20047;-83
2023/09/05 08:29:06;;;;;;;2.10;1.67;;;;;;;;;;4956962;28;20054;-83
2023/09/05 08:31:33;;;;;;;6.10;2.58;;;;;;;;;;4956936;28;20501;-83
2023/09/05 08:34:00;;;;;;;7.65;4.93;;;;;;;;;;4972607;28;20393;-82
2023/09/05 08:36:28;;;;;;;2.40;1.90;;;;;;;;;;4974086;28;20400;-82
2023/09/05 08:38:57;;;;;;;2.15;1.95;;;;;;;;;;4973144;28;20058;-82
2023/09/05 08:41:26;;;;;;;2.10;1.90;;;;;;;;;;4976273;28;20050;-82
2023/09/05 08:43:55;;;;;;;3.55;2.33;;;;;;;;;;4954075;29;20055;-82
2023/09/05 08:46:22;;;;;;;4.05;1.88;;;;;;;;;;4970629;28;20054;-82
2023/09/05 08:48:49;;;;;;;2.00;1.80;;;;;;;;;;4960160;28;20062;-82
2023/09/05 08:51:19;;;;;;;2.30;1.77;;;;;;;;;;4956472;28;20412;-83
2023/09/05 08:53:55;;;;;;;3.33;1.88;;;;;;;;;;4969001;28;20524;-82
2023/09/05 08:56:27;;;;;;;5.57;3.58;;;;;;;;;;4963148;28;20074;-82
2023/09/05 08:58:55;;;;;;;3.03;2.17;;;;;;;;;;4958275;28;20058;-82
2023/09/05 09:01:29;;;;;;;3.45;2.33;;;;;;;;;;4971038;28;20066;-82
2023/09/05 09:04:00;;;;;;;2.25;1.98;;;;;;;;;;4975486;28;20416;-82
2023/09/05 09:06:28;;;;;;;2.25;1.67;;;;;;;;;;4967286;28;20051;-82
2023/09/05 09:08:57;;;;;;;2.50;1.77;;;;;;;;;;4970911;28;20050;-83
2023/09/05 09:11:24;;;;;;;2.65;1.80;;;;;;;;;;4984446;28;20059;-83
2023/09/05 09:13:59;;;;;;;3.75;1.73;;;;;;;;;;4952784;28;20127;-83
2023/09/05 09:16:29;;;;;;;2.10;1.70;;;;;;;;;;4955372;28;20062;-82
2023/09/05 09:19:03;;;;;;;6.07;2.08;;;;;;;;;;4971548;28;20061;-82
2023/09/05 09:21:31;;;;;;;3.27;2.47;;;;;;;;;;4971059;28;20059;-83
2023/09/05 09:23:59;;;;;;;3.95;2.50;;;;;;;;;;4976403;28;20782;-83
2023/09/05 09:26:29;;;;;;;2.22;1.98;;;;;;;;;;4960643;28;20050;-83
2023/09/05 09:28:57;;;;;;;2.33;1.90;;;;;;;;;;4956840;28;20397;-83
2023/09/05 09:31:30;;;;;;;2.25;1.95;;;;;;;;;;4970061;28;20050;-83
2023/09/05 09:34:03;;;;;;;2.85;2.38;;;;;;;;;;4972740;28;20133;-83
2023/09/05 09:36:33;;;;;;;2.15;1.95;;;;;;;;;;4970177;28;20408;-83
2023/09/05 09:39:07;;;;;;;3.75;1.95;;;;;;;;;;4975012;28;20062;-83
2023/09/05 09:41:42;;;;;;;2.75;2.30;;;;;;;;;;4954864;28;20067;-83
2023/09/05 09:44:24;;;;;;;5.65;2.30;;;;;;;;;;4971109;28;20062;-83
2023/09/05 09:46:55;;;;;;;;;;;;;;;;;;4956568;28;20055;-82
2023/09/05 09:49:24;;;;;;;2.83;1.85;;;;;;;;;;4972472;28;19922;-82
2023/09/05 09:51:55;;;;;;;2.33;2.05;;;;;;;;;;4969178;28;20045;-83
2023/09/05 09:54:31;;;;;;;2.28;1.70;;;;;;;;;;4968726;28;20059;-82
2023/09/05 09:57:04;;;;;;;1.92;1.60;;;;;;;;;;4974333;28;20051;-83
2023/09/05 09:59:35;;;;;;;3.05;2.40;;;;;;;;;;4958320;28;20066;-83
2023/09/05 10:02:10;;;;;;;2.25;1.88;;;;;;;;;;4974303;28;20068;-83
2023/09/05 10:04:37;;;;;;;5.40;2.10;;;;;;;;;;4955734;28;20062;-83
2023/09/05 10:07:08;;;;;;;2.40;2.20;;;;;;;;;;4955432;28;20050;-82
2023/09/05 10:09:37;;;;;;;3.45;2.15;;;;;;;;;;4972040;28;20054;-83
2023/09/05 10:12:06;;;;;;;1.95;1.70;;;;;;;;;;4966227;28;20038;-83
2023/09/05 10:14:36;;;;;;;3.08;2.03;;;;;;;;;;4956905;28;20059;-83
2023/09/05 10:17:06;;;;;;;2.10;1.90;;;;;;;;;;4970684;28;20038;-83
2023/09/05 10:19:34;;;;;;;2.28;2.03;;;;;;;;;;4949657;28;20063;-83
2023/09/05 10:22:02;;;;;;;2.08;1.88;;;;;;;;;;4963745;28;20322;-83
2023/09/05 10:24:30;;;;;;;2.80;1.88;;;;;;;;;;4964932;28;20048;-82
2023/09/05 10:26:58;;;;;;;2.83;1.98;;;;;;;;;;4989182;28;20038;-82
2023/09/05 10:29:42;;;;;;;3.20;2.08;;;;;;;;;;4969333;28;20057;-83
2023/09/05 10:32:17;;;;;;;3.03;1.90;;;;;;;;;;4970438;28;20384;-82
2023/09/05 10:34:55;;;;;;;2.47;1.90;;;;;;;;;;4980302;28;20061;-83
2023/09/05 10:37:27;;;;;;;1.80;1.65;;;;;;;;;;4973037;28;20400;-82
2023/09/05 10:39:55;;;;;;;2.33;1.92;;;;;;;;;;4970012;28;20054;-83
2023/09/05 10:42:29;;;;;;;2.28;1.98;;;;;;;;;;4971733;28;20050;-82
2023/09/05 10:45:17;;;;;;;3.75;1.88;;;;;;;;;;4958418;28;20042;-82
2023/09/05 10:47:47;;;;;;;3.58;1.92;;;;;;;;;;4955113;28;20054;-82
2023/09/05 10:50:19;;;;;;;2.65;1.85;;;;;;;;;;4953471;28;20054;-82
2023/09/05 10:53:10;;;;;;;3.88;2.55;;;;;;;;;;4966863;28;20065;-82
2023/09/05 10:55:46;;;;;;;1.92;1.73;;;;;;;;;;4968819;28;20077;-82
2023/09/05 10:58:40;;;;;;;8.52;2.35;;;;;;;;;;4975779;28;20054;-81
2023/09/05 11:01:48;;;;;;;2.53;1.85;;;;;;;;;;4971897;28;20397;-81
2023/09/05 11:04:26;;;;;;;3.33;2.33;;;;;;;;;;4946958;28;20055;-81
2023/09/05 11:07:04;;;;;;;1.83;1.63;;;;;;;;;;4976894;28;20053;-81
2023/09/05 11:09:55;;;;;;;2.53;2.08;;;;;;;;;;4975695;28;20058;-81
2023/09/05 11:12:25;;;;;;;2.92;1.60;;;;;;;;;;4976514;28;20047;-82
2023/09/05 11:14:54;;;;;;;4.82;2.42;;;;;;;;;;4982646;28;20043;-82
2023/09/05 11:17:21;;;;;;;2.15;1.52;;;;;;;;;;4975400;28;20059;-82
2023/09/05 11:19:52;;;;;;;2.33;2.13;;;;;;;;;;4962158;28;20497;-81
2023/09/05 11:22:23;;;;;;;3.50;1.83;;;;;;;;;;4975474;28;20050;-81
2023/09/05 11:24:52;;;;;;;4.63;1.77;;;;;;;;;;4960824;28;20054;-81
2023/09/05 11:27:21;;;;;;;1.30;1.15;;;;;;;;;;4956514;28;20047;-81
2023/09/05 11:29:51;;;;;;;1.98;1.48;;;;;;;;;;4958919;28;20051;-81
2023/09/05 11:32:19;;;;;;;6.20;1.95;;;;;;;;;;4957852;28;20062;-80
2023/09/05 11:34:47;;;;;;;2.58;1.63;;;;;;;;;;4955378;29;20047;-80
2023/09/05 11:37:18;;;;;;;2.35;1.52;;;;;;;;;;4958501;28;20051;-80
2023/09/05 11:39:49;;;;;;;3.70;1.83;;;;;;;;;;4974902;28;20050;-80
2023/09/05 11:42:20;;;;;;;2.65;1.40;;;;;;;;;;4956331;28;20524;-80
2023/09/05 11:44:54;;;;;;;3.45;1.65;;;;;;;;;;4962745;28;20059;-80
2023/09/05 11:47:25;;;;;;;1.67;1.50;;;;;;;;;;4974054;28;20505;-80
2023/09/05 11:49:53;;;;;;;2.10;1.75;;;;;;;;;;4981838;28;20061;-80
2023/09/05 11:52:24;;;;;;;1.75;1.40;;;;;;;;;;4978049;28;20069;-79
2023/09/05 11:54:55;;;;;;;2.88;1.77;;;;;;;;;;4991369;28;20058;-80
2023/09/05 11:57:25;;;;;;;3.30;1.50;;;;;;;;;;4981480;28;20073;-81
2023/09/05 11:59:54;;;;;;;2.47;1.48;;;;;;;;;;4974587;29;20047;-81
2023/09/05 12:02:21;;;;;;;5.40;1.35;;;;;;;;;;4967419;28;20066;-81
2023/09/05 12:04:51;;;;;;;1.98;1.77;;;;;;;;;;4963071;28;20057;-81
2023/09/05 12:07:25;;;;;;;2.55;1.23;;;;;;;;;;4983008;28;20046;-81
2023/09/05 12:09:57;;;;;;;1.80;1.48;;;;;;;;;;4970789;28;20066;-81
2023/09/05 12:12:29;;;;;;;1.80;1.70;;;;;;;;;;4977217;28;20051;-80
2023/09/05 12:15:00;;;;;;;2.30;1.58;;;;;;;;;;4974288;28;20051;-82
2023/09/05 12:17:28;;;;;;;2.33;1.60;;;;;;;;;;4979030;28;20058;-82
2023/09/05 12:20:08;;;;;;;2.20;1.77;;;;;;;;;;4974565;28;20058;-82
2023/09/05 12:23:06;;;;;;;2.22;1.58;;;;;;;;;;4969297;28;20055;-82
2023/09/05 12:26:08;;;;;;;2.85;1.45;;;;;;;;;;4955735;28;20055;-83
2023/09/05 12:28:41;;;;;;;1.60;1.13;;;;;;;;;;4964336;28;20051;-82
2023/09/05 12:31:20;;;;;;;3.05;1.13;;;;;;;;;;4955271;28;20061;-82
2023/09/05 12:33:50;;;;;;;1.83;1.45;;;;;;;;;;4966492;28;20054;-82
2023/09/05 12:36:22;;;;;;;;;;;;;;;;;;4973366;28;20053;-82
2023/09/05 12:39:11;;;;;;;2.20;1.80;;;;;;;;;;4974100;28;20383;-82
2023/09/05 12:41:41;;;;;;;2.47;1.80;;;;;;;;;;4956523;28;20081;-82
2023/09/05 12:44:09;;;;;;;2.55;1.77;;;;;;;;;;4956591;28;20043;-82
2023/09/05 12:46:36;;;;;;;1.58;1.35;;;;;;;;;;4954253;29;20058;-82
2023/09/05 12:49:20;;;;;;;1.48;1.13;;;;;;;;;;4953245;28;20051;-82
2023/09/05 12:51:50;;;;;;;2.30;1.50;;;;;;;;;;4972867;28;20043;-82
2023/09/05 12:54:18;;;;;;;1.90;1.70;;;;;;;;;;4972116;28;20065;-82
2023/09/05 12:56:47;;;;;;;1.83;1.33;;;;;;;;;;4974248;28;20511;-83
2023/09/05 12:59:15;;;;;;;1.95;1.48;;;;;;;;;;4971829;28;20054;-83
2023/09/05 13:01:43;;;;;;;1.20;1.08;;;;;;;;;;4955062;28;20057;-82
2023/09/05 13:04:13;;;;;;;3.33;1.60;;;;;;;;;;4953567;28;20055;-82
2023/09/05 13:06:47;;;;;;;2.08;1.30;;;;;;;;;;4972951;28;20851;-82
2023/09/05 13:09:14;;;;;;;2.05;1.27;;;;;;;;;;4940232;28;20046;-82
2023/09/05 13:11:43;;;;;;;1.60;1.33;;;;;;;;;;4972256;28;20505;-82
2023/09/05 13:14:10;;;;;;;3.70;1.50;;;;;;;;;;4952841;28;20382;-82
2023/09/05 13:16:38;;;;;;;1.23;1.08;;;;;;;;;;4974260;28;20062;-82
2023/09/05 13:19:11;;;;;;;3.75;1.23;;;;;;;;;;4971182;28;20074;-82
2023/09/05 13:21:43;;;;;;;1.52;1.25;;;;;;;;;;4955401;28;20073;-82
2023/09/05 13:24:11;;;;;;;1.80;1.50;;;;;;;;;;4970950;28;20051;-82
2023/09/05 13:26:38;;;;;;;3.35;1.60;;;;;;;;;;4956873;28;20054;-82
2023/09/05 13:29:06;;;;;;;1.42;1.02;;;;;;;;;;4957401;28;20061;-82
2023/09/05 13:31:34;;;;;;;3.10;1.50;;;;;;;;;;4970682;28;20043;-82
2023/09/05 13:34:01;;;;;;;3.72;1.63;;;;;;;;;;4957373;28;20051;-82
2023/09/05 13:36:28;;;;;;;3.13;1.73;;;;;;;;;;4987812;28;20078;-82
2023/09/05 13:38:58;;;;;;;4.10;1.48;;;;;;;;;;4956467;28;20042;-82
2023/09/05 13:41:25;;;;;;;2.30;1.27;;;;;;;;;;4954020;28;20202;-83
2023/09/05 13:43:53;;;;;;;1.38;1.27;;;;;;;;;;4972755;28;20480;-83
2023/09/05 13:46:21;;;;;;;2.42;1.42;;;;;;;;;;4972605;28;20046;-83
2023/09/05 13:48:50;;;;;;;2.45;1.23;;;;;;;;;;4973512;28;20042;-82
2023/09/05 13:51:21;;;;;;;3.42;2.10;;;;;;;;;;4971125;28;20057;-83
2023/09/05 13:53:51;;;;;;;2.05;1.00;;;;;;;;;;4973626;28;20062;-83
2023/09/05 13:56:19;;;;;;;6.65;2.05;;;;;;;;;;4973047;28;20066;-83
2023/09/05 13:58:49;;;;;;;2.63;1.38;;;;;;;;;;4972113;28;20417;-82
2023/09/05 14:01:16;;;;;;;2.65;1.52;;;;;;;;;;4970146;28;20527;-83
2023/09/05 14:03:45;;;;;;;1.27;1.17;;;;;;;;;;4960362;28;20055;-82
2023/09/05 14:06:12;;;;;;;3.38;1.40;;;;;;;;;;4971496;28;20047;-83
2023/09/05 14:08:40;;;;;;;3.42;1.33;;;;;;;;;;4971596;28;20045;-83
2023/09/05 14:11:08;;;;;;;2.13;1.33;;;;;;;;;;4971188;28;20065;-82
2023/09/05 14:13:37;;;;;;;2.10;1.80;;;;;;;;;;4953261;28;20080;-82
2023/09/05 14:16:05;;;;;;;1.35;1.15;;;;;;;;;;4971636;28;20055;-83
2023/09/05 14:18:36;;;;;;;1.40;1.20;;;;;;;;;;4971804;28;20055;-83
2023/09/05 14:21:07;;;;;;;1.75;0.90;;;;;;;;;;4971107;28;20046;-83
2023/09/05 14:23:37;;;;;;;1.40;1.02;;;;;;;;;;4972678;28;20057;-82
2023/09/05 14:26:08;;;;;;;1.10;1.00;;;;;;;;;;4971326;28;20054;-82
2023/09/05 14:28:37;;;;;;;1.80;1.20;;;;;;;;;;4971669;28;20055;-83
2023/09/05 14:31:04;;;;;;;1.40;1.10;;;;;;;;;;4955279;28;20059;-83
2023/09/05 14:33:32;;;;;;;3.45;1.73;;;;;;;;;;4969859;28;20062;-83
2023/09/05 14:36:00;;;;;;;2.97;1.13;;;;;;;;;;4956636;28;20058;-83
2023/09/05 14:38:31;;;;;;;2.35;1.08;;;;;;;;;;4971497;28;20399;-83
2023/09/05 14:41:02;;;;;;;3.78;1.88;;;;;;;;;;4972604;28;20054;-83
2023/09/05 14:43:33;;;;;;;1.25;1.00;;;;;;;;;;4970567;28;20473;-83
2023/09/05 14:46:01;;;;;;;1.98;1.33;;;;;;;;;;4975933;28;20080;-83
2023/09/05 14:48:33;;;;;;;2.65;1.30;;;;;;;;;;4957314;28;20061;-82
2023/09/05 14:51:03;;;;;;;1.65;0.93;;;;;;;;;;4951422;29;20051;-82
2023/09/05 14:53:32;;;;;;;1.23;1.13;;;;;;;;;;4954670;28;20059;-83
2023/09/05 14:56:02;;;;;;;1.35;1.05;;;;;;;;;;4969785;28;20054;-83
2023/09/05 14:58:31;;;;;;;3.15;1.20;;;;;;;;;;4971035;28;20053;-83
2023/09/05 15:01:03;;;;;;;2.42;1.08;;;;;;;;;;4954785;28;20420;-82